Lorraine, New York
Current Conditions -  °F | °C
As of 12:56 AM on Friday 28 Nov 2014 (Local Time) from KART Reporting Station
Overcast Overcast  
Wind Chill: 26°   Ceiling: 3000
Heat Index: 26°   Visibility: 10mi
Dew Point: 19°   Wind: 3mph
Humidity: 75%   Direction: 40°NE
Pressure: 30.07"   Gusts: NA
Location:  43.77°N, 75.96°W
Report Text: KART 280556Z AUTO 04003KT 10SM OVC030 M03/M07 A3007 RMK AO2 SLP189 60000 T10331072 11017 21033 51005
Loading
Personal Weather Stations






























Interactive Weather Map New forecast layout! Learn more

10-Day Weather Forecast

Advertisements
Track Severe Weather on mobile